LOT1214 EPWA-EVRA
Flight info
| Callsign | LOT1214 |
|---|---|
| Flight time | 1h 2m |
| Altitude | 33000 |
| Route | BAMSO Z182 ASLUX Z460 XESNA M857 BULEP BOKSU GUNTA |
| Aircraft | B736/M-SG/L |
Departure
| Time | 2026-05-03 21:10 |
|---|---|
| Airport | Warsaw Chopin Airport (EPWA) |
Arrival
| Time | 2026-05-03 22:13 |
|---|---|
| Airport | Riga International Airport (EVRA) |
| Time | Latitude | Longitude | Altitude | Speed | Heading |
|---|---|---|---|---|---|
| 2026-05-03 20:39 | 52.17346 | 20.97076 | 349 ft | 0 kts | 242° |
| 2026-05-03 20:58 | 52.17353 | 20.97101 | 356 ft | 4 kts | 248° |
| 2026-05-03 20:58 | 52.17360 | 20.97142 | 353 ft | 4 kts | 270° |
| 2026-05-03 20:58 | 52.17355 | 20.97180 | 355 ft | 4 kts | 320° |
| 2026-05-03 20:58 | 52.17346 | 20.97190 | 359 ft | 1 kts | 332° |
| 2026-05-03 21:02 | 52.17348 | 20.97189 | 349 ft | 3 kts | 332° |
| 2026-05-03 21:02 | 52.17402 | 20.97141 | 349 ft | 11 kts | 332° |
| 2026-05-03 21:03 | 52.17468 | 20.97083 | 349 ft | 11 kts | 332° |
| 2026-05-03 21:03 | 52.17533 | 20.97026 | 352 ft | 10 kts | 332° |
| 2026-05-03 21:03 | 52.17595 | 20.96969 | 354 ft | 10 kts | 324° |
| 2026-05-03 21:03 | 52.17609 | 20.96868 | 356 ft | 10 kts | 248° |
| 2026-05-03 21:04 | 52.17575 | 20.96773 | 349 ft | 10 kts | 239° |
| 2026-05-03 21:04 | 52.17542 | 20.96680 | 351 ft | 9 kts | 239° |
| 2026-05-03 21:04 | 52.17508 | 20.96592 | 353 ft | 9 kts | 227° |
| 2026-05-03 21:04 | 52.17465 | 20.96518 | 353 ft | 9 kts | 231° |
| 2026-05-03 21:05 | 52.17438 | 20.96430 | 348 ft | 9 kts | 257° |
| 2026-05-03 21:05 | 52.17457 | 20.96343 | 351 ft | 9 kts | 318° |
| 2026-05-03 21:05 | 52.17507 | 20.96292 | 350 ft | 8 kts | 331° |
| 2026-05-03 21:05 | 52.17555 | 20.96244 | 352 ft | 8 kts | 320° |
| 2026-05-03 21:06 | 52.17578 | 20.96113 | 347 ft | 18 kts | 247° |
| 2026-05-03 21:06 | 52.17459 | 20.95999 | 338 ft | 23 kts | 200° |
| 2026-05-03 21:06 | 52.17344 | 20.96036 | 340 ft | 0 kts | 150° |
| 2026-05-03 21:09 | 52.17341 | 20.96039 | 340 ft | 6 kts | 150° |
| 2026-05-03 21:09 | 52.17141 | 20.96212 | 339 ft | 71 kts | 152° |
| 2026-05-03 21:10 | 52.16466 | 20.96806 | 355 ft | 145 kts | 152° |
| 2026-05-03 21:10 | 52.15518 | 20.97657 | 1028 ft | 152 kts | 153° |
| 2026-05-03 21:10 | 52.14554 | 20.98482 | 1778 ft | 169 kts | 160° |
| 2026-05-03 21:10 | 52.13507 | 20.99448 | 2515 ft | 182 kts | 157° |
| 2026-05-03 21:11 | 52.12394 | 21.00576 | 3106 ft | 206 kts | 148° |
| 2026-05-03 21:11 | 52.11504 | 21.02640 | 3459 ft | 243 kts | 108° |
| 2026-05-03 21:11 | 52.11138 | 21.05407 | 4238 ft | 250 kts | 105° |
| 2026-05-03 21:11 | 52.10768 | 21.08143 | 5075 ft | 252 kts | 105° |
| 2026-05-03 21:12 | 52.10382 | 21.10923 | 5936 ft | 253 kts | 105° |
| 2026-05-03 21:12 | 52.10244 | 21.13790 | 6731 ft | 260 kts | 80° |
| 2026-05-03 21:12 | 52.10998 | 21.16465 | 7529 ft | 268 kts | 49° |
| 2026-05-03 21:12 | 52.12580 | 21.18230 | 8017 ft | 287 kts | 15° |
| 2026-05-03 21:13 | 52.14546 | 21.19044 | 8860 ft | 296 kts | 11° |
| 2026-05-03 21:13 | 52.16571 | 21.19765 | 9815 ft | 300 kts | 5° |
| 2026-05-03 21:13 | 52.18657 | 21.19776 | 10741 ft | 300 kts | 353° |
| 2026-05-03 21:13 | 52.20749 | 21.19583 | 11730 ft | 302 kts | 354° |
| 2026-05-03 21:14 | 52.22830 | 21.19208 | 12688 ft | 301 kts | 340° |
| 2026-05-03 21:14 | 52.24701 | 21.17684 | 13461 ft | 308 kts | 318° |
| 2026-05-03 21:14 | 52.26283 | 21.15221 | 14055 ft | 320 kts | 311° |
| 2026-05-03 21:14 | 52.27965 | 21.12770 | 14828 ft | 330 kts | 325° |
| 2026-05-03 21:15 | 52.30133 | 21.11427 | 15703 ft | 343 kts | 347° |
| 2026-05-03 21:15 | 52.32600 | 21.11530 | 16053 ft | 371 kts | 8° |
| 2026-05-03 21:15 | 52.35094 | 21.12899 | 16639 ft | 388 kts | 27° |
| 2026-05-03 21:15 | 52.37138 | 21.15759 | 17487 ft | 398 kts | 49° |
| 2026-05-03 21:16 | 52.38477 | 21.19735 | 18373 ft | 405 kts | 71° |
| 2026-05-03 21:16 | 52.38864 | 21.24303 | 19135 ft | 409 kts | 93° |
| 2026-05-03 21:16 | 52.38528 | 21.28926 | 19962 ft | 410 kts | 98° |
| 2026-05-03 21:16 | 52.38112 | 21.33569 | 20708 ft | 414 kts | 98° |
| 2026-05-03 21:17 | 52.37712 | 21.38253 | 21426 ft | 418 kts | 97° |
| 2026-05-03 21:17 | 52.37461 | 21.41380 | 21911 ft | 420 kts | 97° |
| 2026-05-03 21:17 | 52.36968 | 21.47768 | 22904 ft | 425 kts | 97° |
| 2026-05-03 21:17 | 52.36602 | 21.52583 | 23645 ft | 428 kts | 96° |
| 2026-05-03 21:18 | 52.36233 | 21.57428 | 24253 ft | 431 kts | 96° |
| 2026-05-03 21:18 | 52.35859 | 21.62303 | 24880 ft | 433 kts | 96° |
| 2026-05-03 21:18 | 52.35479 | 21.67206 | 25506 ft | 436 kts | 96° |
| 2026-05-03 21:18 | 52.35093 | 21.72143 | 26109 ft | 438 kts | 96° |
| 2026-05-03 21:19 | 52.34703 | 21.77110 | 26697 ft | 441 kts | 96° |
| 2026-05-03 21:19 | 52.34309 | 21.82106 | 27274 ft | 444 kts | 96° |
| 2026-05-03 21:19 | 52.33910 | 21.87132 | 27822 ft | 447 kts | 96° |
| 2026-05-03 21:19 | 52.33513 | 21.92124 | 28363 ft | 450 kts | 96° |
| 2026-05-03 21:20 | 52.33183 | 21.97296 | 28889 ft | 452 kts | 94° |
| 2026-05-03 21:20 | 52.32905 | 22.02364 | 29392 ft | 455 kts | 94° |
| 2026-05-03 21:20 | 52.32634 | 22.07528 | 29898 ft | 457 kts | 91° |
| 2026-05-03 21:20 | 52.32971 | 22.12677 | 30347 ft | 455 kts | 72° |
| 2026-05-03 21:21 | 52.34203 | 22.17391 | 30989 ft | 449 kts | 58° |
| 2026-05-03 21:21 | 52.36092 | 22.21396 | 31648 ft | 442 kts | 43° |
| 2026-05-03 21:21 | 52.38457 | 22.24578 | 32227 ft | 439 kts | 36° |
| 2026-05-03 21:21 | 52.40970 | 22.27434 | 32707 ft | 438 kts | 29° |
| 2026-05-03 21:22 | 52.43711 | 22.29636 | 33019 ft | 440 kts | 21° |
| 2026-05-03 21:22 | 52.46613 | 22.31200 | 33011 ft | 438 kts | 13° |
| 2026-05-03 21:22 | 52.52532 | 22.33240 | 33021 ft | 438 kts | 11° |
| 2026-05-03 21:23 | 52.58507 | 22.35263 | 33023 ft | 438 kts | 11° |
| 2026-05-03 21:23 | 52.64474 | 22.37368 | 33014 ft | 439 kts | 12° |
| 2026-05-03 21:24 | 52.70448 | 22.39510 | 33015 ft | 439 kts | 12° |
| 2026-05-03 21:24 | 52.76417 | 22.41652 | 33011 ft | 439 kts | 12° |
| 2026-05-03 21:25 | 52.82372 | 22.43935 | 33012 ft | 439 kts | 13° |
| 2026-05-03 21:25 | 52.88280 | 22.46348 | 33009 ft | 439 kts | 13° |
| 2026-05-03 21:26 | 52.94209 | 22.48775 | 33005 ft | 439 kts | 13° |
| 2026-05-03 21:26 | 53.00152 | 22.51194 | 33006 ft | 439 kts | 13° |
| 2026-05-03 21:27 | 53.06089 | 22.53607 | 32999 ft | 439 kts | 13° |
| 2026-05-03 21:27 | 53.12032 | 22.56026 | 33004 ft | 439 kts | 13° |
| 2026-05-03 21:28 | 53.17973 | 22.58453 | 33000 ft | 440 kts | 13° |
| 2026-05-03 21:28 | 53.23917 | 22.60887 | 32997 ft | 440 kts | 13° |
| 2026-05-03 21:29 | 53.29864 | 22.63331 | 32996 ft | 440 kts | 13° |
| 2026-05-03 21:29 | 53.35775 | 22.65766 | 32997 ft | 440 kts | 13° |
| 2026-05-03 21:30 | 53.41729 | 22.68226 | 32995 ft | 440 kts | 13° |
| 2026-05-03 21:30 | 53.47688 | 22.70695 | 32993 ft | 441 kts | 13° |
| 2026-05-03 21:31 | 53.52641 | 22.72753 | 32988 ft | 441 kts | 13° |
| 2026-05-03 21:31 | 53.58603 | 22.75237 | 32989 ft | 441 kts | 13° |
| 2026-05-03 21:32 | 53.64562 | 22.77726 | 32986 ft | 441 kts | 13° |
| 2026-05-03 21:32 | 53.70520 | 22.80223 | 32985 ft | 441 kts | 13° |
| 2026-05-03 21:33 | 53.76486 | 22.82730 | 32982 ft | 441 kts | 13° |
| 2026-05-03 21:33 | 53.82453 | 22.85245 | 32981 ft | 441 kts | 13° |
| 2026-05-03 21:34 | 53.88372 | 22.87747 | 32979 ft | 441 kts | 13° |
| 2026-05-03 21:34 | 53.94331 | 22.90273 | 32975 ft | 441 kts | 13° |
| 2026-05-03 21:35 | 54.00291 | 22.92807 | 32974 ft | 441 kts | 13° |
| 2026-05-03 21:35 | 54.06255 | 22.95351 | 32972 ft | 441 kts | 13° |
| 2026-05-03 21:36 | 54.12214 | 22.97899 | 32973 ft | 442 kts | 13° |
| 2026-05-03 21:36 | 54.18175 | 23.00457 | 32969 ft | 442 kts | 13° |
| 2026-05-03 21:37 | 54.24137 | 23.03023 | 32966 ft | 442 kts | 13° |
| 2026-05-03 21:37 | 54.30104 | 23.05597 | 32959 ft | 442 kts | 12° |
| 2026-05-03 21:38 | 54.36087 | 23.07777 | 32961 ft | 442 kts | 9° |
| 2026-05-03 21:38 | 54.42146 | 23.09647 | 32959 ft | 442 kts | 8° |
| 2026-05-03 21:39 | 54.48195 | 23.11523 | 32957 ft | 442 kts | 8° |
| 2026-05-03 21:39 | 54.54255 | 23.13456 | 32945 ft | 443 kts | 9° |
| 2026-05-03 21:40 | 54.60312 | 23.15420 | 32954 ft | 443 kts | 8° |
| 2026-05-03 21:40 | 54.66371 | 23.17395 | 32945 ft | 443 kts | 8° |
| 2026-05-03 21:41 | 54.72442 | 23.19380 | 32948 ft | 444 kts | 8° |
| 2026-05-03 21:41 | 54.78511 | 23.21370 | 32944 ft | 444 kts | 8° |
| 2026-05-03 21:42 | 54.84543 | 23.23352 | 32936 ft | 444 kts | 8° |
| 2026-05-03 21:42 | 54.90616 | 23.25355 | 32938 ft | 444 kts | 8° |
| 2026-05-03 21:43 | 54.96686 | 23.27362 | 32940 ft | 444 kts | 8° |
| 2026-05-03 21:43 | 55.02755 | 23.29376 | 32937 ft | 444 kts | 8° |
| 2026-05-03 21:44 | 55.08826 | 23.31396 | 32939 ft | 444 kts | 8° |
| 2026-05-03 21:44 | 55.14899 | 23.33423 | 32936 ft | 444 kts | 8° |
| 2026-05-03 21:45 | 55.20975 | 23.35457 | 32935 ft | 444 kts | 8° |
| 2026-05-03 21:45 | 55.27046 | 23.37496 | 32941 ft | 444 kts | 8° |
| 2026-05-03 21:46 | 55.33124 | 23.39544 | 32936 ft | 444 kts | 8° |
| 2026-05-03 21:46 | 55.39156 | 23.41583 | 32934 ft | 444 kts | 8° |
| 2026-05-03 21:47 | 55.45244 | 23.43647 | 32932 ft | 444 kts | 7° |
| 2026-05-03 21:47 | 55.51319 | 23.45713 | 32933 ft | 445 kts | 7° |
| 2026-05-03 21:48 | 55.57397 | 23.47786 | 32930 ft | 444 kts | 7° |
| 2026-05-03 21:48 | 55.63438 | 23.49854 | 32925 ft | 445 kts | 7° |
| 2026-05-03 21:49 | 55.69519 | 23.51942 | 32923 ft | 445 kts | 7° |
| 2026-05-03 21:49 | 55.72576 | 23.52992 | 32331 ft | 451 kts | 7° |
| 2026-05-03 21:49 | 55.75649 | 23.54050 | 31564 ft | 448 kts | 7° |
| 2026-05-03 21:50 | 55.78711 | 23.55108 | 30660 ft | 449 kts | 7° |
| 2026-05-03 21:50 | 55.81779 | 23.56169 | 29730 ft | 449 kts | 7° |
| 2026-05-03 21:50 | 55.84835 | 23.57230 | 29016 ft | 443 kts | 7° |
| 2026-05-03 21:50 | 55.87797 | 23.58261 | 28343 ft | 436 kts | 7° |
| 2026-05-03 21:51 | 55.90754 | 23.59292 | 27682 ft | 430 kts | 7° |
| 2026-05-03 21:51 | 55.93680 | 23.60311 | 27012 ft | 425 kts | 7° |
| 2026-05-03 21:51 | 55.96570 | 23.61318 | 26373 ft | 421 kts | 7° |
| 2026-05-03 21:51 | 55.99427 | 23.62315 | 25739 ft | 417 kts | 7° |
| 2026-05-03 21:52 | 56.02260 | 23.63304 | 25120 ft | 413 kts | 7° |
| 2026-05-03 21:52 | 56.05070 | 23.64287 | 24508 ft | 410 kts | 7° |
| 2026-05-03 21:52 | 56.07858 | 23.65264 | 23903 ft | 407 kts | 7° |
| 2026-05-03 21:52 | 56.10631 | 23.66236 | 23228 ft | 405 kts | 7° |
| 2026-05-03 21:53 | 56.13388 | 23.67205 | 22542 ft | 402 kts | 7° |
| 2026-05-03 21:53 | 56.16122 | 23.68168 | 21913 ft | 398 kts | 7° |
| 2026-05-03 21:53 | 56.18829 | 23.69124 | 21307 ft | 394 kts | 7° |
| 2026-05-03 21:53 | 56.21511 | 23.70071 | 20708 ft | 391 kts | 7° |
| 2026-05-03 21:54 | 56.24171 | 23.71011 | 20120 ft | 388 kts | 7° |
| 2026-05-03 21:54 | 56.26777 | 23.71933 | 19553 ft | 385 kts | 7° |
| 2026-05-03 21:54 | 56.29396 | 23.72861 | 18989 ft | 382 kts | 6° |
| 2026-05-03 21:54 | 56.32003 | 23.73787 | 18421 ft | 380 kts | 6° |
| 2026-05-03 21:55 | 56.34555 | 23.74945 | 18038 ft | 378 kts | 18° |
| 2026-05-03 21:55 | 56.36762 | 23.77426 | 17788 ft | 374 kts | 38° |
| 2026-05-03 21:55 | 56.38415 | 23.81061 | 17229 ft | 378 kts | 59° |
| 2026-05-03 21:55 | 56.39515 | 23.85358 | 16763 ft | 376 kts | 65° |
| 2026-05-03 21:56 | 56.40502 | 23.89713 | 16247 ft | 373 kts | 66° |
| 2026-05-03 21:56 | 56.41467 | 23.94056 | 15771 ft | 371 kts | 66° |
| 2026-05-03 21:56 | 56.42432 | 23.98352 | 15287 ft | 368 kts | 66° |
| 2026-05-03 21:56 | 56.43404 | 24.02616 | 14815 ft | 366 kts | 65° |
| 2026-05-03 21:57 | 56.44379 | 24.06844 | 14344 ft | 364 kts | 65° |
| 2026-05-03 21:57 | 56.45353 | 24.11053 | 13866 ft | 362 kts | 65° |
| 2026-05-03 21:57 | 56.46307 | 24.15188 | 13382 ft | 360 kts | 65° |
| 2026-05-03 21:57 | 56.47323 | 24.19296 | 12858 ft | 356 kts | 57° |
| 2026-05-03 21:58 | 56.48845 | 24.22704 | 12639 ft | 340 kts | 41° |
| 2026-05-03 21:58 | 56.50475 | 24.25689 | 12487 ft | 330 kts | 41° |
| 2026-05-03 21:58 | 56.52035 | 24.28583 | 12348 ft | 326 kts | 41° |
| 2026-05-03 21:58 | 56.53596 | 24.31529 | 12205 ft | 320 kts | 42° |
| 2026-05-03 21:59 | 56.55114 | 24.34408 | 12067 ft | 310 kts | 39° |
| 2026-05-03 21:59 | 56.56826 | 24.36564 | 11853 ft | 292 kts | 16° |
| 2026-05-03 21:59 | 56.58735 | 24.37499 | 11608 ft | 280 kts | 3° |
| 2026-05-03 21:59 | 56.60647 | 24.38131 | 11300 ft | 278 kts | 2° |
| 2026-05-03 22:00 | 56.62540 | 24.38749 | 11140 ft | 271 kts | 2° |
| 2026-05-03 22:00 | 56.64330 | 24.38834 | 10967 ft | 251 kts | 339° |
| 2026-05-03 22:00 | 56.65885 | 24.37691 | 10707 ft | 236 kts | 321° |
| 2026-05-03 22:00 | 56.67273 | 24.36119 | 10451 ft | 234 kts | 320° |
| 2026-05-03 22:01 | 56.68644 | 24.34528 | 10188 ft | 233 kts | 319° |
| 2026-05-03 22:01 | 56.70008 | 24.32943 | 9918 ft | 232 kts | 319° |
| 2026-05-03 22:01 | 56.71374 | 24.31359 | 9628 ft | 232 kts | 319° |
| 2026-05-03 22:01 | 56.72731 | 24.29789 | 9346 ft | 231 kts | 319° |
| 2026-05-03 22:02 | 56.74090 | 24.28219 | 9065 ft | 231 kts | 319° |
| 2026-05-03 22:02 | 56.75447 | 24.26652 | 8792 ft | 230 kts | 319° |
| 2026-05-03 22:02 | 56.76797 | 24.25093 | 8523 ft | 229 kts | 319° |
| 2026-05-03 22:02 | 56.78143 | 24.23540 | 8254 ft | 229 kts | 319° |
| 2026-05-03 22:03 | 56.79486 | 24.21989 | 7983 ft | 228 kts | 319° |
| 2026-05-03 22:03 | 56.80827 | 24.20440 | 7718 ft | 227 kts | 319° |
| 2026-05-03 22:03 | 56.82130 | 24.18935 | 7494 ft | 221 kts | 319° |
| 2026-05-03 22:03 | 56.83408 | 24.17461 | 7224 ft | 214 kts | 319° |
| 2026-05-03 22:04 | 56.84659 | 24.16045 | 6967 ft | 210 kts | 324° |
| 2026-05-03 22:04 | 56.86127 | 24.15464 | 6666 ft | 223 kts | 351° |
| 2026-05-03 22:04 | 56.87680 | 24.15629 | 6353 ft | 224 kts | 356° |
| 2026-05-03 22:04 | 56.89232 | 24.15916 | 6016 ft | 223 kts | 357° |
| 2026-05-03 22:05 | 56.90775 | 24.16207 | 5681 ft | 222 kts | 357° |
| 2026-05-03 22:05 | 56.92257 | 24.16483 | 5558 ft | 205 kts | 356° |
| 2026-05-03 22:05 | 56.93685 | 24.16734 | 5237 ft | 207 kts | 356° |
| 2026-05-03 22:05 | 56.95125 | 24.16969 | 5379 ft | 218 kts | 356° |
| 2026-05-03 22:06 | 56.96596 | 24.17215 | 5423 ft | 204 kts | 356° |
| 2026-05-03 22:06 | 56.98002 | 24.17456 | 5241 ft | 206 kts | 356° |
| 2026-05-03 22:06 | 56.99496 | 24.17689 | 5084 ft | 225 kts | 356° |
| 2026-05-03 22:06 | 57.01118 | 24.17864 | 5132 ft | 245 kts | 348° |
| 2026-05-03 22:07 | 57.02629 | 24.16763 | 4896 ft | 230 kts | 316° |
| 2026-05-03 22:07 | 57.03841 | 24.14841 | 4654 ft | 231 kts | 312° |
| 2026-05-03 22:07 | 57.05046 | 24.12889 | 4404 ft | 231 kts | 313° |
| 2026-05-03 22:07 | 57.06245 | 24.10932 | 4150 ft | 231 kts | 309° |
| 2026-05-03 22:08 | 57.07046 | 24.08482 | 3902 ft | 218 kts | 284° |
| 2026-05-03 22:08 | 57.07215 | 24.05880 | 3630 ft | 196 kts | 263° |
| 2026-05-03 22:08 | 57.06872 | 24.03588 | 3373 ft | 181 kts | 245° |
| 2026-05-03 22:08 | 57.06169 | 24.01754 | 2910 ft | 173 kts | 230° |
| 2026-05-03 22:09 | 57.05312 | 24.00417 | 2808 ft | 153 kts | 217° |
| 2026-05-03 22:09 | 57.04358 | 23.99711 | 2583 ft | 143 kts | 204° |
| 2026-05-03 22:09 | 57.03403 | 23.99345 | 2059 ft | 141 kts | 195° |
| 2026-05-03 22:10 | 57.01582 | 23.99027 | 1473 ft | 129 kts | 192° |
| 2026-05-03 22:10 | 57.00706 | 23.98843 | 1345 ft | 129 kts | 194° |
| 2026-05-03 22:10 | 56.99807 | 23.98581 | 1106 ft | 132 kts | 193° |
| 2026-05-03 22:10 | 56.98912 | 23.98361 | 987 ft | 128 kts | 192° |
| 2026-05-03 22:11 | 56.98026 | 23.98183 | 904 ft | 128 kts | 189° |
| 2026-05-03 22:11 | 56.97132 | 23.97986 | 710 ft | 130 kts | 188° |
| 2026-05-03 22:11 | 56.96238 | 23.97778 | 583 ft | 129 kts | 187° |
| 2026-05-03 22:11 | 56.95342 | 23.97611 | 391 ft | 129 kts | 185° |
| 2026-05-03 22:12 | 56.94465 | 23.97456 | 265 ft | 126 kts | 185° |
| 2026-05-03 22:12 | 56.93595 | 23.97319 | 122 ft | 125 kts | 185° |
| 2026-05-03 22:12 | 56.92760 | 23.97187 | 44 ft | 108 kts | 184° |
| 2026-05-03 22:12 | 56.92162 | 23.97081 | 44 ft | 66 kts | 187° |
| 2026-05-03 22:13 | 56.91871 | 23.97032 | 43 ft | 26 kts | 186° |
| 2026-05-03 22:13 | 56.91741 | 23.97063 | 42 ft | 17 kts | 129° |
| 2026-05-03 22:13 | 56.91716 | 23.97269 | 43 ft | 18 kts | 95° |
| 2026-05-03 22:13 | 56.91793 | 23.97416 | 43 ft | 19 kts | 6° |
| 2026-05-03 22:14 | 56.91938 | 23.97439 | 43 ft | 22 kts | 3° |
| 2026-05-03 22:14 | 56.92098 | 23.97454 | 43 ft | 23 kts | 4° |
| 2026-05-03 22:14 | 56.92256 | 23.97479 | 43 ft | 23 kts | 5° |
| 2026-05-03 22:14 | 56.92355 | 23.97556 | 42 ft | 14 kts | 73° |
| 2026-05-03 22:15 | 56.92324 | 23.97678 | 43 ft | 10 kts | 169° |
| 2026-05-03 22:15 | 56.92286 | 23.97675 | 41 ft | 4 kts | 184° |
| 2026-05-03 22:15 | 56.92278 | 23.97674 | 43 ft | 0 kts | 184° |